Battle Lake, Minnesota
Current Conditions -  °F | °C
As of 2:14 AM on Friday 24 Oct 2014 (Local Time) from KFFM Reporting Station
Clear Clear  
Wind Chill: 45°   Ceiling: Unl
Heat Index: 48°   Visibility: 10mi
Dew Point: 39°   Wind: 8mph
Humidity: 71%   Direction: 150°SSE
Pressure: 29.86"   Gusts: NA
Location:  46.28°N, 95.71°W
Report Text: KFFM 240714Z AUTO 15007KT 10SM CLR 09/04 A2986 RMK AO2
Loading
Personal Weather Stations






























Interactive Weather Map
Tropical Storm Tracking
New forecast layout! Learn more

10-Day Weather Forecast

Advertisements
Track Severe Weather on mobile